Lewistown, PA

10:07 PM EDT on June 30, 2015 (GMT -0400)
South Side | | Change Station
CLOSE
Current Station
Personal Weather Station
Location: Lewistown, PA
Elevation: 486 ft
Nearby Weather Stations

Elev 486 ft 40.59 °N, 77.57 °W | Updated 11 seconds ago

Partly Cloudy
Partly Cloudy
67.4 °F
Feels Like 67.4 °F
N
0.0
Wind Variable Wind from North
Gusts 1.6 mph

Today
High -- | Low -- °F
--% Chance of Precip.
Yesterday
High -- | Low -- °F
Precip. -- in
5:42 AM 8:45 PM
Waxing Gibbous, 99% visible
Pressure 29.82 in
Visibility 7.0 miles
Clouds Scattered Clouds 3500 ft
Dew Point 61 °F
Humidity 81%
Rainfall in
Snow Depth Not available.
UV 0 out of 12
Pollen 2.10 out of 12
Air Quality Not available.
Flu Activity Sporadic
METAR KUNV 010053Z 00000KT 7SM SCT035 19/18 A2982

More Conditions Fewer Conditions

Pressure 29.82 in
Visibility 7.0 miles
Clouds Scattered Clouds 3500 ft
Dew Point 61 °F
Humidity 81%
Rainfall in
Snow Depth Not available.
UV 0 out of 12
Pollen 2.10 out of 12
Air Quality Not available.
Flu Activity Sporadic
METAR KUNV 010053Z 00000KT 7SM SCT035 19/18 A2982

More Conditions Fewer Conditions

Nowcast | as of 9:26 PM EDT on June 30, 2015

A few showers and thunderstorms will be across the western portion of central Pennsylvania through midnight. A brief heavy downpour will be possible. The showers and storms are moving northeast at 25 mph.

×

10-Day Weather Forecast

×

Almanac

Astronomy

Jun. 30, 2015 Rise Set
Actual Time
Civil Twilight
Nautical Twilight
Astronomical Twilight
Moon
Length of Visible Light
Length of Day
Tomorrow will be .
, % of the Moon is Illuminated

Today's Extremes

State Highs State Lows

Community

WunderPhotos

Upload Photos

1,834,091 photos uploaded!

WunderBlogs® & News

Nearby

Air Quality

  Air Quality AQ Index Pollutant
Not available.

Snow Depth

Station Depth Elevation

Earthquake Activity

City Distance Mag. Time & Date
Minimum magnitude displayed is 2.5.

Coastal Water Temperatures

Place Temperature

Stations

Nearby Weather Stations

Station Location Temp. Windchill Dew Point Humidity Wind Precip. Elev Updated Type